Time;durP1;ratioP1;P1;durP2;ratioP2;P2;SDS_P1;SDS_P2;PMS_P1;PMS_P2;Temp;Humidity;BMP_temperature;BMP_pressure;BME280_temperature;BME280_humidity;BME280_pressure;Samples;Min_cycle;Max_cycle;Signal;HPM_P1;HPM_P2
2022/10/28 00:01:44;;;;;;;6.30;5.70;;;;;;;;;;5050321;28;21067;-77
2022/10/28 00:04:11;;;;;;;9.70;7.87;;;;;;;;;;5050379;28;20433;-78
2022/10/28 00:06:38;;;;;;;8.80;6.97;;;;;;;;;;5050472;28;20442;-76
2022/10/28 00:09:06;;;;;;;10.43;6.57;;;;;;;;;;5050561;28;20453;-78
2022/10/28 00:11:34;;;;;;;7.60;5.63;;;;;;;;;;5050496;28;20568;-78
2022/10/28 00:14:02;;;;;;;10.80;6.40;;;;;;;;;;5049958;28;20481;-78
2022/10/28 00:16:32;;;;;;;7.57;6.00;;;;;;;;;;5051239;28;20441;-78
2022/10/28 00:18:59;;;;;;;9.10;5.67;;;;;;;;;;5050337;28;20445;-78
2022/10/28 00:21:28;;;;;;;7.43;5.93;;;;;;;;;;5050285;28;20477;-77
2022/10/28 00:23:55;;;;;;;11.33;6.10;;;;;;;;;;5049811;28;20438;-77
2022/10/28 00:26:24;;;;;;;8.23;6.33;;;;;;;;;;5050314;28;20452;-77
2022/10/28 00:28:52;;;;;;;8.00;6.90;;;;;;;;;;5050008;28;20438;-77
2022/10/28 00:31:20;;;;;;;9.40;6.40;;;;;;;;;;5050152;28;20469;-78
2022/10/28 00:33:48;;;;;;;10.33;6.43;;;;;;;;;;5050247;28;21005;-78
2022/10/28 00:36:17;;;;;;;12.80;6.07;;;;;;;;;;5050260;28;20476;-77
2022/10/28 00:38:45;;;;;;;8.63;6.00;;;;;;;;;;5061262;28;20452;-78
2022/10/28 00:41:13;;;;;;;8.00;6.10;;;;;;;;;;5070415;28;20530;-77
2022/10/28 00:43:43;;;;;;;10.53;6.60;;;;;;;;;;5069619;28;20466;-79
2022/10/28 00:46:17;;;;;;;9.20;6.77;;;;;;;;;;5070397;28;20432;-79
2022/10/28 00:48:45;;;;;;;10.20;6.30;;;;;;;;;;5069913;28;20821;-78
2022/10/28 00:51:15;;;;;;;14.63;6.80;;;;;;;;;;5070172;28;20472;-78
2022/10/28 00:53:43;;;;;;;7.00;6.40;;;;;;;;;;5063171;28;20503;-78
2022/10/28 00:56:10;;;;;;;9.03;6.23;;;;;;;;;;5070582;28;20445;-78
2022/10/28 00:58:38;;;;;;;11.80;6.50;;;;;;;;;;5073255;28;20459;-77
2022/10/28 01:01:05;;;;;;;8.10;6.10;;;;;;;;;;5073420;28;20436;-79
2022/10/28 01:03:32;;;;;;;5.77;5.07;;;;;;;;;;5073078;28;20433;-77
2022/10/28 01:05:59;;;;;;;6.57;5.70;;;;;;;;;;5073642;28;20448;-77
2022/10/28 01:08:28;;;;;;;8.37;6.07;;;;;;;;;;5073492;28;20494;-78
2022/10/28 01:11:02;;;;;;;6.83;5.73;;;;;;;;;;5073724;28;20532;-77
2022/10/28 01:13:37;;;;;;;11.53;5.90;;;;;;;;;;5073040;28;20474;-77
2022/10/28 01:16:07;;;;;;;9.30;6.00;;;;;;;;;;5073526;28;21161;-78
2022/10/28 01:18:42;;;;;;;9.03;5.27;;;;;;;;;;5073602;28;20460;-76
2022/10/28 01:21:21;;;;;;;8.63;6.00;;;;;;;;;;5073584;28;20468;-78
2022/10/28 01:23:56;;;;;;;8.30;6.17;;;;;;;;;;5072645;28;20429;-78
2022/10/28 01:26:34;;;;;;;7.37;5.80;;;;;;;;;;5073316;28;20444;-77
2022/10/28 01:29:23;;;;;;;6.37;5.73;;;;;;;;;;5073658;28;20432;-77
2022/10/28 01:31:54;;;;;;;8.90;5.93;;;;;;;;;;5073376;28;20494;-77
2022/10/28 01:34:26;;;;;;;10.50;6.33;;;;;;;;;;5072074;28;20814;-78
2022/10/28 01:36:56;;;;;;;8.43;6.43;;;;;;;;;;5067650;28;20449;-78
2022/10/28 01:39:29;;;;;;;11.97;6.50;;;;;;;;;;5073009;28;20948;-78
2022/10/28 01:41:58;;;;;;;10.87;6.27;;;;;;;;;;5062978;28;20490;-77
2022/10/28 01:44:28;;;;;;;14.60;6.40;;;;;;;;;;5072206;28;20429;-77
2022/10/28 01:47:00;;;;;;;8.80;5.90;;;;;;;;;;5072495;28;20772;-78
2022/10/28 01:49:33;;;;;;;11.40;6.23;;;;;;;;;;5072993;28;20441;-78
2022/10/28 01:52:02;;;;;;;7.13;6.40;;;;;;;;;;5072498;28;20460;-77
2022/10/28 01:54:31;;;;;;;8.20;6.47;;;;;;;;;;5071852;28;20479;-78
2022/10/28 01:56:58;;;;;;;9.83;6.30;;;;;;;;;;5072245;28;20970;-78
2022/10/28 01:59:27;;;;;;;8.50;5.40;;;;;;;;;;5072805;28;20680;-78
2022/10/28 02:01:54;;;;;;;9.33;6.60;;;;;;;;;;5072308;28;20464;-78
2022/10/28 02:04:23;;;;;;;10.90;6.10;;;;;;;;;;5071840;28;20922;-79
2022/10/28 02:06:52;;;;;;;10.00;7.80;;;;;;;;;;5072021;28;20532;-77
2022/10/28 02:09:25;;;;;;;12.50;7.60;;;;;;;;;;5072053;28;20451;-78
2022/10/28 02:12:16;;;;;;;8.50;6.77;;;;;;;;;;5072346;28;20477;-77
2022/10/28 02:15:01;;;;;;;6.67;5.90;;;;;;;;;;5071644;28;20464;-77
2022/10/28 02:17:35;;;;;;;8.30;6.27;;;;;;;;;;5072378;28;20452;-77
2022/10/28 02:20:08;;;;;;;8.63;7.87;;;;;;;;;;5071906;28;20472;-77
2022/10/28 02:22:41;;;;;;;13.57;6.63;;;;;;;;;;5071351;28;20475;-77
2022/10/28 02:25:10;;;;;;;13.03;6.57;;;;;;;;;;5071999;28;21201;-78
2022/10/28 02:27:41;;;;;;;10.67;6.63;;;;;;;;;;5071890;28;20441;-77
2022/10/28 02:30:09;;;;;;;12.67;5.87;;;;;;;;;;5072051;28;20440;-78
2022/10/28 02:32:39;;;;;;;11.50;6.30;;;;;;;;;;5070623;28;20487;-78
2022/10/28 02:35:10;;;;;;;8.60;7.70;;;;;;;;;;5071461;28;20916;-78
2022/10/28 02:37:39;;;;;;;9.50;6.87;;;;;;;;;;5071459;28;20923;-77
2022/10/28 02:40:08;;;;;;;10.53;7.00;;;;;;;;;;5071657;28;20444;-78
2022/10/28 02:42:37;;;;;;;8.40;6.57;;;;;;;;;;5070997;28;20487;-77
2022/10/28 02:45:07;;;;;;;11.67;6.70;;;;;;;;;;5071389;28;20452;-76
2022/10/28 02:47:36;;;;;;;8.97;6.30;;;;;;;;;;5071246;28;20448;-78
2022/10/28 02:50:05;;;;;;;10.07;6.80;;;;;;;;;;5071635;28;20445;-78
2022/10/28 02:52:34;;;;;;;11.10;6.30;;;;;;;;;;5070537;28;20999;-77
2022/10/28 02:55:03;;;;;;;10.60;6.90;;;;;;;;;;5070875;28;21244;-77
2022/10/28 02:57:32;;;;;;;9.30;6.60;;;;;;;;;;5071269;28;20457;-78
2022/10/28 03:00:01;;;;;;;9.33;6.30;;;;;;;;;;5070958;28;20877;-78
2022/10/28 03:02:28;;;;;;;9.80;6.87;;;;;;;;;;5070746;28;20456;-77
2022/10/28 03:04:55;;;;;;;7.50;6.07;;;;;;;;;;5070487;28;20449;-76
2022/10/28 03:07:22;;;;;;;9.80;6.13;;;;;;;;;;5070693;28;20440;-78
2022/10/28 03:09:51;;;;;;;8.60;6.43;;;;;;;;;;5070660;28;20455;-78
2022/10/28 03:12:18;;;;;;;7.80;6.50;;;;;;;;;;5071168;28;20522;-76
2022/10/28 03:14:45;;;;;;;10.17;6.60;;;;;;;;;;5070073;28;20663;-78
2022/10/28 03:17:12;;;;;;;10.97;6.67;;;;;;;;;;5070702;28;20448;-77
2022/10/28 03:19:39;;;;;;;7.87;6.07;;;;;;;;;;5070248;28;20794;-78
2022/10/28 03:22:06;;;;;;;9.63;6.77;;;;;;;;;;5070379;28;20988;-78
2022/10/28 03:24:33;;;;;;;8.47;6.40;;;;;;;;;;5070388;28;20429;-76
2022/10/28 03:27:01;;;;;;;7.73;6.30;;;;;;;;;;5070598;28;20441;-78
2022/10/28 03:29:28;;;;;;;12.57;7.00;;;;;;;;;;5070443;28;20441;-78
2022/10/28 03:31:55;;;;;;;7.13;6.27;;;;;;;;;;5070370;28;20522;-79
2022/10/28 03:34:22;;;;;;;12.10;7.00;;;;;;;;;;5070004;28;20488;-78
2022/10/28 03:36:49;;;;;;;9.33;6.50;;;;;;;;;;5070553;28;20965;-78
2022/10/28 03:39:16;;;;;;;7.43;6.60;;;;;;;;;;5070643;28;20478;-78
2022/10/28 03:41:43;;;;;;;10.90;6.53;;;;;;;;;;5072974;28;20464;-77
2022/10/28 03:44:12;;;;;;;6.83;5.80;;;;;;;;;;5073808;28;20444;-77
2022/10/28 03:46:39;;;;;;;7.20;6.40;;;;;;;;;;5072446;28;20451;-77
2022/10/28 03:49:06;;;;;;;9.07;6.90;;;;;;;;;;5071107;28;20464;-76
2022/10/28 03:51:33;;;;;;;10.37;6.47;;;;;;;;;;5071489;28;20559;-77
2022/10/28 03:54:00;;;;;;;8.03;6.80;;;;;;;;;;5070876;28;20476;-77
2022/10/28 03:56:27;;;;;;;8.70;6.30;;;;;;;;;;5071697;28;20451;-77
2022/10/28 03:58:54;;;;;;;10.83;6.50;;;;;;;;;;5070892;28;20823;-78
2022/10/28 04:01:23;;;;;;;9.80;6.90;;;;;;;;;;5071315;28;20460;-77
2022/10/28 04:03:50;;;;;;;11.27;6.90;;;;;;;;;;5071034;28;20448;-78
2022/10/28 04:06:17;;;;;;;6.67;6.07;;;;;;;;;;5070740;28;20433;-77
2022/10/28 04:08:44;;;;;;;10.07;7.30;;;;;;;;;;5071058;28;20441;-78
2022/10/28 04:11:11;;;;;;;10.40;6.83;;;;;;;;;;5071041;28;20468;-78
2022/10/28 04:13:38;;;;;;;9.40;6.97;;;;;;;;;;5070201;28;20476;-77
2022/10/28 04:16:05;;;;;;;17.20;7.27;;;;;;;;;;5071137;28;20969;-78
2022/10/28 04:18:34;;;;;;;10.60;6.90;;;;;;;;;;5071575;28;20444;-77
2022/10/28 04:21:01;;;;;;;13.90;7.40;;;;;;;;;;5069115;28;20492;-77
2022/10/28 04:23:28;;;;;;;9.90;6.80;;;;;;;;;;5057747;28;20810;-79
2022/10/28 04:25:55;;;;;;;12.63;6.80;;;;;;;;;;5071313;28;20441;-78
2022/10/28 04:28:23;;;;;;;9.73;6.53;;;;;;;;;;5071019;28;20447;-78
2022/10/28 04:30:51;;;;;;;12.30;6.73;;;;;;;;;;5059477;28;20457;-78
2022/10/28 04:33:18;;;;;;;11.93;7.50;;;;;;;;;;5070570;28;20467;-78
2022/10/28 04:35:46;;;;;;;10.17;7.50;;;;;;;;;;5074279;28;20448;-77
2022/10/28 04:38:14;;;;;;;9.60;7.30;;;;;;;;;;5074119;28;20449;-77
2022/10/28 04:40:41;;;;;;;9.20;6.57;;;;;;;;;;5074200;28;20535;-77
2022/10/28 04:43:10;;;;;;;7.33;6.50;;;;;;;;;;5074711;28;20467;-77
2022/10/28 04:45:38;;;;;;;10.57;7.03;;;;;;;;;;5076056;28;20445;-77
2022/10/28 04:48:05;;;;;;;10.23;6.83;;;;;;;;;;5076897;28;20528;-78
2022/10/28 04:50:32;;;;;;;11.00;7.30;;;;;;;;;;5076566;28;20459;-78
2022/10/28 04:53:01;;;;;;;8.70;7.00;;;;;;;;;;5075182;28;20460;-78
2022/10/28 04:55:28;;;;;;;8.77;6.67;;;;;;;;;;5077255;28;20491;-77
2022/10/28 04:57:55;;;;;;;7.93;6.80;;;;;;;;;;5075524;28;20440;-78
2022/10/28 05:00:22;;;;;;;11.30;7.37;;;;;;;;;;5074337;28;20476;-78
2022/10/28 05:02:50;;;;;;;10.57;7.70;;;;;;;;;;5073851;28;20980;-77
2022/10/28 05:05:17;;;;;;;7.73;6.67;;;;;;;;;;5074479;28;20479;-78
2022/10/28 05:07:44;;;;;;;9.97;7.00;;;;;;;;;;5072842;28;20448;-76
2022/10/28 05:10:14;;;;;;;8.17;7.37;;;;;;;;;;5073216;28;20467;-76
2022/10/28 05:12:42;;;;;;;7.87;6.80;;;;;;;;;;5073452;28;20471;-76
2022/10/28 05:15:10;;;;;;;9.63;7.13;;;;;;;;;;5073774;28;20506;-77
2022/10/28 05:17:38;;;;;;;10.33;7.20;;;;;;;;;;5073883;28;20440;-78
2022/10/28 05:20:06;;;;;;;8.87;7.57;;;;;;;;;;5072848;28;20445;-76
2022/10/28 05:22:33;;;;;;;11.17;7.00;;;;;;;;;;5072236;28;20641;-76
2022/10/28 05:25:00;;;;;;;9.30;7.97;;;;;;;;;;5072617;28;20429;-77
2022/10/28 05:27:28;;;;;;;11.97;7.60;;;;;;;;;;5073019;28;20429;-76
2022/10/28 05:29:55;;;;;;;9.70;7.67;;;;;;;;;;5072615;28;20445;-76
2022/10/28 05:32:22;;;;;;;10.00;7.53;;;;;;;;;;5072120;28;20472;-77
2022/10/28 05:34:49;;;;;;;10.17;7.23;;;;;;;;;;5071686;28;20495;-76
2022/10/28 05:37:16;;;;;;;8.77;7.00;;;;;;;;;;5072398;28;20471;-77
2022/10/28 05:39:43;;;;;;;8.83;6.47;;;;;;;;;;5072104;28;20448;-77
2022/10/28 05:42:10;;;;;;;9.23;6.10;;;;;;;;;;5072675;28;20473;-76
2022/10/28 05:44:39;;;;;;;8.90;7.37;;;;;;;;;;5071997;28;20437;-76
2022/10/28 05:47:06;;;;;;;7.50;6.80;;;;;;;;;;5072744;28;20620;-76
2022/10/28 05:49:33;;;;;;;11.00;7.40;;;;;;;;;;5072634;28;20445;-76
2022/10/28 05:52:00;;;;;;;8.80;6.57;;;;;;;;;;5072414;28;21156;-76
2022/10/28 05:54:27;;;;;;;9.23;6.43;;;;;;;;;;5071629;28;21014;-77
2022/10/28 05:56:54;;;;;;;9.53;6.33;;;;;;;;;;5072256;28;20940;-77
2022/10/28 05:59:21;;;;;;;7.60;6.27;;;;;;;;;;5071746;28;20443;-76
2022/10/28 06:01:50;;;;;;;7.60;6.40;;;;;;;;;;5071821;28;20468;-77
2022/10/28 06:04:17;;;;;;;11.57;7.00;;;;;;;;;;5071746;28;20536;-76
2022/10/28 06:06:44;;;;;;;12.73;6.67;;;;;;;;;;5071999;28;20444;-76
2022/10/28 06:09:11;;;;;;;9.97;7.27;;;;;;;;;;5071502;28;20966;-76
2022/10/28 06:11:38;;;;;;;9.63;5.90;;;;;;;;;;5071143;28;20850;-78
2022/10/28 06:14:05;;;;;;;11.00;7.07;;;;;;;;;;5050791;28;20485;-77
2022/10/28 06:16:32;;;;;;;11.27;6.60;;;;;;;;;;5051467;28;20449;-76
2022/10/28 06:19:00;;;;;;;8.30;6.27;;;;;;;;;;5051407;28;20449;-77
2022/10/28 06:21:28;;;;;;;7.53;6.40;;;;;;;;;;5051485;28;20466;-77
2022/10/28 06:23:55;;;;;;;8.63;6.80;;;;;;;;;;5060666;28;20471;-77
2022/10/28 06:26:22;;;;;;;9.17;7.10;;;;;;;;;;5071155;28;21068;-77
2022/10/28 06:28:49;;;;;;;9.37;6.87;;;;;;;;;;5063678;28;20461;-77
2022/10/28 06:31:16;;;;;;;8.43;6.40;;;;;;;;;;5070666;28;20472;-76
2022/10/28 06:33:43;;;;;;;8.87;6.80;;;;;;;;;;5069277;28;20459;-77
2022/10/28 06:36:11;;;;;;;13.93;8.33;;;;;;;;;;5063256;28;20488;-76
2022/10/28 06:38:38;;;;;;;10.70;7.30;;;;;;;;;;5070867;28;20488;-76
2022/10/28 06:41:05;;;;;;;14.77;10.70;;;;;;;;;;5071112;28;20524;-77
2022/10/28 06:43:32;;;;;;;10.73;7.60;;;;;;;;;;5070528;28;20445;-77
2022/10/28 06:46:01;;;;;;;12.73;6.97;;;;;;;;;;5071119;28;20449;-77
2022/10/28 06:48:29;;;;;;;11.73;6.60;;;;;;;;;;5070664;28;20451;-77
2022/10/28 06:50:56;;;;;;;10.70;6.43;;;;;;;;;;5071047;28;20447;-77
2022/10/28 06:53:26;;;;;;;11.90;7.30;;;;;;;;;;5074127;28;20441;-78
2022/10/28 06:55:53;;;;;;;10.40;7.33;;;;;;;;;;5077689;28;20464;-78
2022/10/28 06:58:20;;;;;;;8.53;6.73;;;;;;;;;;5070527;28;20449;-76
2022/10/28 07:00:48;;;;;;;11.33;6.80;;;;;;;;;;5070716;28;20449;-76
2022/10/28 07:03:15;;;;;;;7.60;6.90;;;;;;;;;;5070910;28;21326;-78
2022/10/28 07:05:42;;;;;;;8.43;6.80;;;;;;;;;;5071088;28;20941;-76
2022/10/28 07:08:09;;;;;;;11.60;6.90;;;;;;;;;;5066732;28;20456;-77
2022/10/28 07:10:37;;;;;;;9.73;6.97;;;;;;;;;;5067237;28;20457;-76
2022/10/28 07:13:04;;;;;;;13.37;6.90;;;;;;;;;;5068406;28;20480;-76
2022/10/28 07:15:31;;;;;;;8.67;7.00;;;;;;;;;;5070730;28;20575;-79
2022/10/28 07:18:00;;;;;;;7.93;6.97;;;;;;;;;;5052031;28;20442;-77
2022/10/28 07:20:30;;;;;;;9.33;6.67;;;;;;;;;;5052301;28;21207;-77
2022/10/28 07:22:57;;;;;;;10.30;7.87;;;;;;;;;;5052518;28;20469;-78
2022/10/28 07:25:25;;;;;;;9.17;6.90;;;;;;;;;;5054251;28;20438;-76
2022/10/28 07:27:53;;;;;;;10.47;7.37;;;;;;;;;;5069058;28;20512;-78
2022/10/28 07:30:20;;;;;;;11.70;6.83;;;;;;;;;;5085179;28;20445;-76
2022/10/28 07:32:47;;;;;;;9.93;7.20;;;;;;;;;;5084070;28;20485;-77
2022/10/28 07:35:14;;;;;;;9.73;7.20;;;;;;;;;;5084064;28;20468;-76
2022/10/28 07:37:41;;;;;;;11.17;7.27;;;;;;;;;;5077030;28;20440;-76
2022/10/28 07:40:09;;;;;;;9.50;7.10;;;;;;;;;;5072947;28;20922;-76
2022/10/28 07:42:36;;;;;;;9.57;6.40;;;;;;;;;;5070119;28;20556;-77
2022/10/28 07:45:05;;;;;;;8.80;6.60;;;;;;;;;;5070506;28;20445;-77
2022/10/28 07:47:32;;;;;;;9.00;6.43;;;;;;;;;;5070864;28;20443;-78
2022/10/28 07:49:59;;;;;;;10.10;6.47;;;;;;;;;;5070989;28;20447;-77
2022/10/28 07:52:26;;;;;;;8.73;6.20;;;;;;;;;;5070726;28;20460;-78
2022/10/28 07:54:53;;;;;;;9.47;6.53;;;;;;;;;;5069980;28;20476;-77
2022/10/28 07:57:20;;;;;;;12.17;6.90;;;;;;;;;;5070299;28;20467;-77
2022/10/28 07:59:47;;;;;;;11.50;5.60;;;;;;;;;;5070347;28;20448;-78
2022/10/28 08:02:17;;;;;;;10.93;7.00;;;;;;;;;;5070629;28;20460;-77
2022/10/28 08:04:45;;;;;;;8.73;5.97;;;;;;;;;;5069837;28;20426;-77
2022/10/28 08:07:12;;;;;;;12.70;6.57;;;;;;;;;;5073075;28;20447;-76
2022/10/28 08:09:39;;;;;;;8.90;6.00;;;;;;;;;;5074058;28;20436;-77
2022/10/28 08:12:06;;;;;;;10.50;6.60;;;;;;;;;;5074523;28;20487;-76
2022/10/28 08:14:33;;;;;;;10.30;6.60;;;;;;;;;;5073383;28;20944;-78
2022/10/28 08:17:00;;;;;;;9.03;5.90;;;;;;;;;;5074282;28;20444;-77
2022/10/28 08:19:28;;;;;;;8.03;6.73;;;;;;;;;;5073747;28;20433;-77
2022/10/28 08:21:55;;;;;;;8.63;6.30;;;;;;;;;;5073882;28;20472;-76
2022/10/28 08:24:23;;;;;;;7.47;6.43;;;;;;;;;;5073487;28;20447;-77
2022/10/28 08:26:50;;;;;;;11.90;6.73;;;;;;;;;;5073963;28;20436;-77
2022/10/28 08:29:17;;;;;;;13.80;8.07;;;;;;;;;;5073885;28;20444;-77
2022/10/28 08:31:44;;;;;;;7.20;6.03;;;;;;;;;;5073919;28;20467;-76
2022/10/28 08:34:11;;;;;;;9.77;6.40;;;;;;;;;;5072737;28;20433;-76
2022/10/28 08:36:39;;;;;;;7.13;6.37;;;;;;;;;;5073889;28;20483;-77
2022/10/28 08:39:07;;;;;;;10.13;6.03;;;;;;;;;;5073475;28;20957;-77
2022/10/28 08:41:37;;;;;;;9.40;5.93;;;;;;;;;;5073638;28;20467;-77
2022/10/28 08:44:20;;;;;;;7.57;5.93;;;;;;;;;;5072884;28;20424;-76
2022/10/28 08:46:53;;;;;;;10.50;5.93;;;;;;;;;;5073221;28;20921;-77
2022/10/28 08:49:21;;;;;;;10.57;6.20;;;;;;;;;;5073260;28;20511;-77
2022/10/28 08:51:51;;;;;;;8.87;6.37;;;;;;;;;;5073932;28;20467;-77
2022/10/28 08:54:21;;;;;;;16.23;7.80;;;;;;;;;;5072759;28;20444;-76
2022/10/28 08:56:49;;;;;;;9.80;7.23;;;;;;;;;;5073174;28;20487;-75
2022/10/28 08:59:19;;;;;;;8.03;6.23;;;;;;;;;;5073239;28;20459;-77
2022/10/28 09:01:48;;;;;;;8.37;6.43;;;;;;;;;;5072761;28;20457;-77
2022/10/28 09:04:19;;;;;;;17.17;6.40;;;;;;;;;;5060149;28;20453;-76
2022/10/28 09:06:46;;;;;;;13.13;6.77;;;;;;;;;;5066114;28;20447;-76
2022/10/28 09:09:17;;;;;;;8.93;6.13;;;;;;;;;;5067037;28;20446;-75
2022/10/28 09:11:49;;;;;;;10.97;5.73;;;;;;;;;;5059802;28;20454;-76
2022/10/28 09:14:22;;;;;;;11.57;6.10;;;;;;;;;;5056360;28;20448;-76
2022/10/28 09:16:50;;;;;;;11.90;5.80;;;;;;;;;;5072810;28;20569;-77
2022/10/28 09:19:25;;;;;;;8.53;6.63;;;;;;;;;;5072051;28;20467;-78
2022/10/28 09:21:57;;;;;;;9.70;5.97;;;;;;;;;;5072854;28;20464;-77
2022/10/28 09:24:30;;;;;;;7.53;5.40;;;;;;;;;;5061984;28;20453;-76
2022/10/28 09:27:00;;;;;;;11.07;5.40;;;;;;;;;;5052302;28;20438;-76
2022/10/28 09:29:33;;;;;;;11.80;7.10;;;;;;;;;;5053143;28;20444;-76
2022/10/28 09:32:03;;;;;;;9.00;6.97;;;;;;;;;;5052538;28;20474;-77
2022/10/28 09:34:35;;;;;;;10.97;8.40;;;;;;;;;;5051852;28;20426;-76
2022/10/28 09:37:05;;;;;;;15.33;7.80;;;;;;;;;;5052618;28;20477;-77
2022/10/28 09:39:36;;;;;;;13.90;7.60;;;;;;;;;;5052559;28;20442;-77
2022/10/28 09:42:04;;;;;;;11.40;7.07;;;;;;;;;;5052347;28;20465;-76
2022/10/28 09:44:37;;;;;;;12.00;7.50;;;;;;;;;;5052202;28;20473;-76
2022/10/28 09:47:05;;;;;;;9.57;6.77;;;;;;;;;;5053010;28;20426;-77
2022/10/28 09:49:35;;;;;;;15.03;7.43;;;;;;;;;;5052645;28;20495;-77
2022/10/28 09:52:05;;;;;;;8.50;7.47;;;;;;;;;;5052279;28;20488;-76
2022/10/28 09:54:35;;;;;;;8.37;7.13;;;;;;;;;;5051520;28;20426;-77
2022/10/28 09:57:02;;;;;;;12.70;7.30;;;;;;;;;;5051209;28;21004;-78
2022/10/28 09:59:29;;;;;;;10.23;6.70;;;;;;;;;;5051831;28;20452;-77
2022/10/28 10:01:57;;;;;;;10.30;6.90;;;;;;;;;;5051869;28;20488;-77
2022/10/28 10:04:25;;;;;;;6.93;5.50;;;;;;;;;;5050439;28;20445;-76
2022/10/28 10:06:53;;;;;;;9.90;6.50;;;;;;;;;;5051729;28;20442;-77
2022/10/28 10:09:22;;;;;;;15.23;6.40;;;;;;;;;;5051447;28;20856;-76
2022/10/28 10:11:52;;;;;;;15.23;6.70;;;;;;;;;;5053455;28;20536;-77
2022/10/28 10:14:20;;;;;;;13.30;6.53;;;;;;;;;;5071566;28;20452;-77
2022/10/28 10:16:49;;;;;;;14.97;7.43;;;;;;;;;;5071165;28;20480;-77
2022/10/28 10:19:16;;;;;;;9.90;6.40;;;;;;;;;;5071732;28;20444;-77
2022/10/28 10:21:45;;;;;;;9.70;6.70;;;;;;;;;;5071222;28;20464;-76
2022/10/28 10:24:26;;;;;;;11.17;7.17;;;;;;;;;;5071083;28;20463;-77
2022/10/28 10:26:54;;;;;;;8.50;6.67;;;;;;;;;;5071287;28;20445;-76
2022/10/28 10:29:22;;;;;;;10.13;6.23;;;;;;;;;;5071301;28;20452;-76
2022/10/28 10:32:03;;;;;;;11.40;6.80;;;;;;;;;;5071302;28;20999;-77
2022/10/28 10:34:31;;;;;;;11.20;6.50;;;;;;;;;;5070492;28;20478;-76
2022/10/28 10:36:58;;;;;;;15.40;7.37;;;;;;;;;;5071299;28;20495;-76
2022/10/28 10:39:28;;;;;;;11.70;7.33;;;;;;;;;;5074293;28;20456;-77
2022/10/28 10:41:56;;;;;;;12.93;6.77;;;;;;;;;;5070995;28;20487;-77
2022/10/28 10:44:31;;;;;;;14.87;7.30;;;;;;;;;;5070716;28;20440;-77
2022/10/28 10:47:13;;;;;;;15.07;6.70;;;;;;;;;;5069667;28;20897;-77
2022/10/28 10:49:40;;;;;;;11.90;6.90;;;;;;;;;;5069751;28;20444;-75
2022/10/28 10:52:16;;;;;;;9.27;5.77;;;;;;;;;;5064104;28;20476;-76
2022/10/28 10:54:47;;;;;;;15.17;5.50;;;;;;;;;;5069351;28;20432;-77
2022/10/28 10:57:18;;;;;;;8.83;5.60;;;;;;;;;;5050393;28;20465;-76
2022/10/28 10:59:46;;;;;;;10.33;5.73;;;;;;;;;;5050793;28;20437;-76
2022/10/28 11:02:21;;;;;;;10.30;6.30;;;;;;;;;;5050059;28;20472;-77
2022/10/28 11:04:51;;;;;;;10.53;5.83;;;;;;;;;;5050251;28;20429;-77
2022/10/28 11:07:18;;;;;;;8.97;6.60;;;;;;;;;;5050728;28;20937;-77
2022/10/28 11:09:48;;;;;;;9.37;5.27;;;;;;;;;;5050290;28;20949;-77
2022/10/28 11:12:25;;;;;;;9.87;6.00;;;;;;;;;;5055725;28;20465;-77
2022/10/28 11:14:56;;;;;;;10.10;5.80;;;;;;;;;;5070054;28;20424;-76
2022/10/28 11:17:24;;;;;;;12.73;5.53;;;;;;;;;;5070290;28;20485;-77
2022/10/28 11:19:54;;;;;;;8.30;6.10;;;;;;;;;;5070723;28;20452;-77
2022/10/28 11:22:25;;;;;;;10.93;7.27;;;;;;;;;;5070240;28;20464;-76
2022/10/28 11:24:59;;;;;;;13.10;6.40;;;;;;;;;;5070626;28;20432;-77
2022/10/28 11:27:34;;;;;;;14.33;6.37;;;;;;;;;;5071608;28;20440;-77
2022/10/28 11:30:01;;;;;;;12.57;6.63;;;;;;;;;;5072047;28;20710;-76
2022/10/28 11:32:37;;;;;;;10.17;5.27;;;;;;;;;;5070992;28;20472;-77
2022/10/28 11:35:10;;;;;;;13.90;6.00;;;;;;;;;;5070768;28;20440;-76
2022/10/28 11:37:45;;;;;;;12.87;5.60;;;;;;;;;;5071821;28;20491;-76
2022/10/28 11:40:21;;;;;;;11.27;5.73;;;;;;;;;;5070798;28;20463;-77
2022/10/28 11:42:55;;;;;;;10.10;5.27;;;;;;;;;;5070227;28;20472;-77
2022/10/28 11:45:25;;;;;;;9.80;5.80;;;;;;;;;;5070269;28;20844;-77
2022/10/28 11:48:02;;;;;;;9.83;5.07;;;;;;;;;;5070492;28;20616;-77
2022/10/28 11:50:35;;;;;;;8.10;4.87;;;;;;;;;;5070433;28;20436;-78
2022/10/28 11:53:13;;;;;;;12.37;5.03;;;;;;;;;;5069809;28;20465;-77
2022/10/28 11:55:42;;;;;;;11.17;5.13;;;;;;;;;;5069664;28;20830;-77
2022/10/28 11:58:14;;;;;;;12.30;5.73;;;;;;;;;;5070056;28;20452;-78
2022/10/28 12:00:44;;;;;;;8.10;5.23;;;;;;;;;;5069842;28;20444;-77
2022/10/28 12:03:29;;;;;;;10.27;6.00;;;;;;;;;;5068869;28;20851;-77
2022/10/28 12:06:03;;;;;;;17.83;5.53;;;;;;;;;;5070225;28;20452;-77
2022/10/28 12:08:39;;;;;;;13.10;5.50;;;;;;;;;;5069780;28;20457;-77
2022/10/28 12:11:14;;;;;;;6.70;5.27;;;;;;;;;;5069767;28;20444;-76
2022/10/28 12:13:45;;;;;;;6.37;4.80;;;;;;;;;;5051671;28;20441;-77
2022/10/28 12:16:16;;;;;;;8.67;5.40;;;;;;;;;;5050077;28;20488;-76
2022/10/28 12:18:49;;;;;;;11.20;4.90;;;;;;;;;;5049886;28;20452;-77
2022/10/28 12:21:20;;;;;;;15.03;4.80;;;;;;;;;;5049736;28;20465;-77
2022/10/28 12:23:48;;;;;;;10.83;5.20;;;;;;;;;;5049020;28;20528;-77
2022/10/28 12:26:16;;;;;;;6.20;4.57;;;;;;;;;;5049715;28;20453;-77
2022/10/28 12:28:46;;;;;;;6.70;4.77;;;;;;;;;;5049508;28;20468;-77
2022/10/28 12:31:19;;;;;;;9.77;4.93;;;;;;;;;;5050190;28;20462;-76
2022/10/28 12:33:47;;;;;;;12.63;5.27;;;;;;;;;;5050179;28;20457;-77
2022/10/28 12:36:19;;;;;;;5.83;5.10;;;;;;;;;;5050847;28;20504;-77
2022/10/28 12:38:52;;;;;;;8.70;5.37;;;;;;;;;;5050771;28;20433;-76
2022/10/28 12:41:21;;;;;;;7.70;5.57;;;;;;;;;;5051995;28;20446;-77
2022/10/28 12:43:52;;;;;;;6.57;4.90;;;;;;;;;;5049509;28;20730;-76
2022/10/28 12:46:25;;;;;;;13.97;5.73;;;;;;;;;;5054221;28;20448;-77
2022/10/28 12:48:55;;;;;;;18.37;16.10;;;;;;;;;;5049964;28;20445;-77
2022/10/28 12:51:26;;;;;;;10.20;5.80;;;;;;;;;;5049744;28;20466;-77
2022/10/28 12:53:56;;;;;;;11.10;5.47;;;;;;;;;;5051399;28;20449;-77
2022/10/28 12:56:27;;;;;;;8.30;5.13;;;;;;;;;;5053770;28;20995;-77
2022/10/28 12:58:59;;;;;;;8.70;5.53;;;;;;;;;;5053526;28;20441;-77
2022/10/28 13:01:28;;;;;;;9.00;5.73;;;;;;;;;;5059326;28;20622;-76
2022/10/28 13:03:55;;;;;;;8.00;5.20;;;;;;;;;;5057397;28;20441;-76
2022/10/28 13:06:42;;;;;;;9.30;5.30;;;;;;;;;;5057149;28;20453;-76
2022/10/28 13:09:29;;;;;;;8.67;4.90;;;;;;;;;;5039617;28;20445;-79
2022/10/28 13:12:15;;;;;;;11.10;5.67;;;;;;;;;;5055745;28;20453;-77
2022/10/28 13:14:49;;;;;;;13.23;4.73;;;;;;;;;;5072079;28;20927;-77
2022/10/28 13:17:22;;;;;;;7.07;4.60;;;;;;;;;;5072679;28;20567;-77
2022/10/28 13:19:54;;;;;;;11.87;5.50;;;;;;;;;;5072941;28;20447;-77
2022/10/28 13:22:36;;;;;;;12.60;5.77;;;;;;;;;;5072191;28;20559;-77
2022/10/28 13:25:11;;;;;;;9.60;4.53;;;;;;;;;;5072889;28;20428;-77
2022/10/28 13:27:38;;;;;;;6.03;4.70;;;;;;;;;;5072390;28;20440;-77
2022/10/28 13:30:15;;;;;;;10.20;5.03;;;;;;;;;;5072450;28;20445;-77
2022/10/28 13:32:42;;;;;;;9.90;6.30;;;;;;;;;;5071047;28;20503;-77
2022/10/28 13:35:15;;;;;;;8.60;5.20;;;;;;;;;;5072161;28;20944;-77
2022/10/28 13:37:46;;;;;;;11.63;5.00;;;;;;;;;;5072675;28;20480;-76
2022/10/28 13:40:21;;;;;;;8.20;4.90;;;;;;;;;;5071998;28;20425;-76
2022/10/28 13:42:49;;;;;;;6.43;4.53;;;;;;;;;;5071573;28;20460;-77
2022/10/28 13:45:34;;;;;;;7.73;5.53;;;;;;;;;;5072086;28;20471;-77
2022/10/28 13:48:16;;;;;;;12.03;5.23;;;;;;;;;;5072291;28;20436;-77
2022/10/28 13:50:45;;;;;;;10.33;4.90;;;;;;;;;;5072042;28;20452;-77
2022/10/28 13:53:42;;;;;;;9.40;4.43;;;;;;;;;;5071580;28;20483;-77
2022/10/28 13:56:17;;;;;;;12.80;5.53;;;;;;;;;;5072027;28;20537;-77
2022/10/28 13:58:50;;;;;;;11.40;6.10;;;;;;;;;;5071749;28;20811;-77
2022/10/28 14:01:37;;;;;;;8.20;5.83;;;;;;;;;;5072220;28;20465;-78
2022/10/28 14:04:04;;;;;;;8.50;4.83;;;;;;;;;;5071215;28;20435;-77
2022/10/28 14:06:34;;;;;;;8.90;4.77;;;;;;;;;;5072277;28;20475;-77
2022/10/28 14:09:01;;;;;;;7.27;5.10;;;;;;;;;;5071626;28;20445;-77
2022/10/28 14:11:29;;;;;;;8.27;5.33;;;;;;;;;;5071170;28;20980;-76
2022/10/28 14:13:57;;;;;;;11.97;6.33;;;;;;;;;;5051350;28;20771;-77
2022/10/28 14:16:26;;;;;;;8.20;5.90;;;;;;;;;;5051091;28;20938;-77
2022/10/28 14:18:55;;;;;;;7.40;5.47;;;;;;;;;;5051450;28;20469;-77
2022/10/28 14:21:23;;;;;;;12.33;5.50;;;;;;;;;;5050921;28;20887;-77
2022/10/28 14:24:07;;;;;;;10.20;5.30;;;;;;;;;;5051001;28;20437;-76
2022/10/28 14:26:49;;;;;;;8.33;6.50;;;;;;;;;;5051436;28;20464;-78
2022/10/28 14:29:23;;;;;;;10.27;5.80;;;;;;;;;;5050968;28;20448;-77
2022/10/28 14:31:50;;;;;;;11.07;5.40;;;;;;;;;;5051346;28;20544;-77
2022/10/28 14:34:44;;;;;;;9.73;5.50;;;;;;;;;;5050878;28;20453;-77
2022/10/28 14:37:30;;;;;;;8.93;5.20;;;;;;;;;;5051104;28;20481;-78
2022/10/28 14:40:06;;;;;;;11.60;5.33;;;;;;;;;;5051048;28;20449;-76
2022/10/28 14:42:42;;;;;;;6.60;4.73;;;;;;;;;;5050373;28;20960;-78
2022/10/28 14:45:21;;;;;;;8.17;5.80;;;;;;;;;;5050809;28;20453;-76
2022/10/28 14:47:57;;;;;;;11.53;6.47;;;;;;;;;;5051084;28;20426;-77
2022/10/28 14:50:26;;;;;;;9.67;6.20;;;;;;;;;;5051283;28;20444;-77
2022/10/28 14:52:55;;;;;;;11.40;6.57;;;;;;;;;;5050228;28;20469;-77